Time;durP1;ratioP1;P1;durP2;ratioP2;P2;SDS_P1;SDS_P2;PMS_P1;PMS_P2;Temp;Humidity;BMP_temperature;BMP_pressure;BME280_temperature;BME280_humidity;BME280_pressure;Samples;Min_cycle;Max_cycle;Signal;HPM_P1;HPM_P2
2024/04/06 00:00:27;;;;;;;5.68;1.40;;;;;;;18.07;60.59;100205.75;10293021;28;20042;-57
2024/04/06 00:05:28;;;;;;;3.28;1.67;;;;;;;18.00;60.87;100214.03;10291170;28;20189;-59
2024/04/06 00:10:28;;;;;;;5.35;1.45;;;;;;;17.96;61.14;100216.34;10303121;28;20125;-59
2024/04/06 00:15:29;;;;;;;5.55;1.80;;;;;;;17.87;61.49;100220.47;10294266;28;20157;-59
2024/04/06 00:20:30;;;;;;;8.45;0.80;;;;;;;17.87;61.66;100208.75;10306089;28;20047;-59
2024/04/06 00:25:31;;;;;;;4.00;1.15;;;;;;;17.82;61.88;100206.69;10303770;28;20046;-59
2024/04/06 00:30:31;;;;;;;3.00;1.13;;;;;;;17.77;62.21;100201.06;10298911;28;20470;-59
2024/04/06 00:35:32;;;;;;;3.22;1.20;;;;;;;17.72;62.34;100198.22;10302667;28;20089;-59
2024/04/06 00:40:33;;;;;;;6.30;1.17;;;;;;;17.70;62.58;100189.47;10302358;28;20050;-59
2024/04/06 00:45:33;;;;;;;2.55;0.82;;;;;;;17.67;62.81;100206.22;10307977;28;20050;-59
2024/04/06 00:50:34;;;;;;;5.63;0.85;;;;;;;17.48;63.34;100217.09;10306641;28;20046;-59
2024/04/06 00:55:35;;;;;;;2.55;1.45;;;;;;;17.48;63.03;100206.22;10300013;28;20042;-62
2024/04/06 01:00:36;;;;;;;2.38;1.20;;;;;;;17.51;63.35;100208.47;10304451;28;20038;-63
2024/04/06 01:05:37;;;;;;;3.03;1.13;;;;;;;17.54;63.35;100212.66;10308555;28;20488;-57
2024/04/06 01:10:37;;;;;;;2.33;0.93;;;;;;;17.55;63.37;100206.97;10301561;28;20043;-57
2024/04/06 01:15:38;;;;;;;2.63;1.10;;;;;;;17.58;63.73;100211.97;10300420;28;20047;-57
2024/04/06 01:20:43;;;;;;;3.03;1.10;;;;;;;17.55;63.94;100204.25;10284062;28;20108;-56
2024/04/06 01:25:44;;;;;;;4.22;2.03;;;;;;;17.49;64.00;100196.19;10298809;28;20047;-56
2024/04/06 01:30:44;;;;;;;2.72;1.27;;;;;;;17.44;64.24;100196.84;10281751;28;20413;-57
2024/04/06 01:35:45;;;;;;;5.22;1.25;;;;;;;17.39;64.26;100200.22;10303773;28;20475;-56
2024/04/06 01:40:45;;;;;;;3.70;1.70;;;;;;;17.34;64.47;100193.84;10297899;28;20506;-58
2024/04/06 01:45:45;;;;;;;4.60;1.75;;;;;;;17.23;64.68;100193.50;10286604;28;20418;-56
2024/04/06 01:50:46;;;;;;;5.40;2.10;;;;;;;17.16;64.98;100192.75;10299703;28;20416;-58
2024/04/06 01:55:46;;;;;;;4.35;2.33;;;;;;;17.19;64.93;100196.88;10303564;28;20526;-58
2024/04/06 02:00:47;;;;;;;4.93;1.40;;;;;;;17.18;64.85;100189.78;10296511;28;20064;-57
2024/04/06 02:05:47;;;;;;;4.03;2.03;;;;;;;17.06;65.00;100186.97;10298465;28;20448;-56
2024/04/06 02:10:48;;;;;;;5.85;2.20;;;;;;;16.90;65.12;100182.09;10295278;28;20528;-57
2024/04/06 02:15:48;;;;;;;2.67;1.60;;;;;;;16.70;65.36;100190.38;10296767;28;20046;-56
2024/04/06 02:20:49;;;;;;;4.95;1.80;;;;;;;16.60;65.63;100188.16;10280439;28;20496;-58
2024/04/06 02:25:49;;;;;;;5.80;2.35;;;;;;;16.50;65.82;100185.09;10294061;28;20482;-56
2024/04/06 02:30:51;;;;;;;6.55;1.85;;;;;;;16.36;66.13;100182.47;10298815;28;20413;-57
2024/04/06 02:35:51;;;;;;;3.92;1.48;;;;;;;16.22;66.25;100180.88;10296157;28;20483;-59
2024/04/06 02:40:52;;;;;;;2.85;1.70;;;;;;;16.07;66.48;100197.41;10305243;28;20089;-57
2024/04/06 02:45:53;;;;;;;3.85;1.70;;;;;;;15.88;66.50;100203.75;10299711;28;20063;-57
2024/04/06 02:50:53;;;;;;;4.28;1.75;;;;;;;15.77;66.85;100207.97;10295523;28;20045;-57
2024/04/06 02:55:55;;;;;;;5.60;1.70;;;;;;;15.69;67.01;100219.03;10297556;28;20043;-58
2024/04/06 03:00:56;;;;;;;5.35;1.80;;;;;;;15.61;66.93;100225.50;10297669;28;20031;-58
2024/04/06 03:05:56;;;;;;;3.47;1.42;;;;;;;15.55;67.14;100210.94;10295086;28;20042;-57
2024/04/06 03:10:57;;;;;;;4.40;1.58;;;;;;;15.47;67.41;100208.44;10298293;28;20464;-58
2024/04/06 03:15:57;;;;;;;6.72;1.38;;;;;;;15.36;67.65;100217.22;10300620;28;20488;-57
2024/04/06 03:20:58;;;;;;;2.80;1.77;;;;;;;15.25;67.56;100210.56;10294362;28;20546;-57
2024/04/06 03:25:58;;;;;;;4.43;1.77;;;;;;;15.12;67.82;100195.16;10294272;28;20046;-59
2024/04/06 03:30:59;;;;;;;4.65;1.40;;;;;;;15.00;68.01;100196.84;10292464;28;20051;-59
2024/04/06 03:36:00;;;;;;;4.63;1.67;;;;;;;14.81;68.24;100199.34;10277460;28;20430;-59
2024/04/06 03:41:00;;;;;;;6.68;3.47;;;;;;;14.70;68.49;100199.94;10292767;28;20064;-59
2024/04/06 03:46:01;;;;;;;8.05;5.18;;;;;;;14.63;68.66;100191.84;10293483;28;20074;-59
2024/04/06 03:51:01;;;;;;;3.33;1.70;;;;;;;14.32;69.39;100200.50;10297061;28;20054;-59
2024/04/06 03:56:03;;;;;;;5.38;2.17;;;;;;;14.30;69.27;100207.97;10308085;28;20039;-59
2024/04/06 04:01:04;;;;;;;3.35;1.67;;;;;;;14.30;69.21;100213.38;10305357;28;20050;-59
2024/04/06 04:06:05;;;;;;;2.25;1.42;;;;;;;14.24;69.16;100223.13;10302895;28;20046;-59
2024/04/06 04:11:07;;;;;;;2.40;1.35;;;;;;;14.20;69.17;100224.59;10298484;28;20050;-59
2024/04/06 04:16:08;;;;;;;4.50;1.48;;;;;;;14.20;69.34;100232.69;10302299;28;20569;-59
2024/04/06 04:21:09;;;;;;;4.93;1.55;;;;;;;14.31;69.32;100231.25;10306328;28;20047;-59
2024/04/06 04:26:09;;;;;;;4.80;1.60;;;;;;;14.42;69.13;100219.03;10302815;28;20047;-59
2024/04/06 04:31:17;;;;;;;1.95;1.38;;;;;;;14.46;69.28;100225.69;10304419;28;20669;-59
2024/04/06 04:36:18;;;;;;;5.00;1.40;;;;;;;14.39;69.22;100222.13;10306264;28;20054;-63
2024/04/06 04:41:18;;;;;;;1.50;1.00;;;;;;;14.31;69.44;100225.84;10304549;28;20046;-63
2024/04/06 04:46:19;;;;;;;3.55;1.33;;;;;;;14.18;69.49;100236.59;10302229;28;20046;-60
2024/04/06 04:51:20;;;;;;;3.72;1.13;;;;;;;14.04;69.72;100251.94;10286745;28;20051;-63
2024/04/06 04:56:21;;;;;;;5.25;1.33;;;;;;;14.11;69.90;100231.19;10302041;28;20102;-64
2024/04/06 05:01:21;;;;;;;3.25;1.33;;;;;;;14.18;69.36;100221.25;10297882;28;20084;-66
2024/04/06 05:06:22;;;;;;;2.55;1.23;;;;;;;14.17;69.53;100230.38;10300565;28;20047;-65
2024/04/06 05:11:22;;;;;;;5.35;1.70;;;;;;;14.19;69.90;100241.00;10297430;28;20060;-60
2024/04/06 05:16:23;;;;;;;3.08;1.30;;;;;;;14.26;69.61;100253.50;10301806;28;20042;-59
2024/04/06 05:21:24;;;;;;;6.60;1.23;;;;;;;14.23;69.60;100247.66;10296085;28;20439;-59
2024/04/06 05:26:25;;;;;;;6.20;1.10;;;;;;;14.20;69.67;100275.94;10298447;28;20051;-59
2024/04/06 05:31:25;;;;;;;3.03;1.52;;;;;;;14.15;69.71;100280.28;10298527;28;20042;-59
2024/04/06 05:36:26;;;;;;;2.10;1.42;;;;;;;14.22;69.77;100281.16;10300815;28;20038;-59
2024/04/06 05:41:27;;;;;;;2.08;1.15;;;;;;;14.21;69.53;100271.38;10299193;28;20133;-59
2024/04/06 05:46:27;;;;;;;6.28;1.83;;;;;;;14.17;69.72;100273.63;10312030;28;20042;-57
2024/04/06 05:51:31;;;;;;;5.85;1.90;;;;;;;14.24;69.92;100281.78;10304991;28;20042;-56
2024/04/06 05:56:32;;;;;;;2.90;1.52;;;;;;;14.30;70.22;100278.28;10303917;28;20042;-57
2024/04/06 06:01:33;;;;;;;6.47;1.70;;;;;;;14.47;69.93;100266.06;10310415;28;20134;-57
2024/04/06 06:06:33;;;;;;;5.80;1.70;;;;;;;14.72;69.79;100264.69;10307823;28;20050;-57
2024/04/06 06:11:33;;;;;;;3.08;1.35;;;;;;;14.92;69.45;100276.38;10306199;28;20065;-59
2024/04/06 06:16:34;;;;;;;5.82;1.73;;;;;;;15.15;68.53;100284.09;10299873;28;20042;-64
2024/04/06 06:21:34;;;;;;;10.68;3.95;;;;;;;15.39;68.60;100282.63;10300688;28;20076;-65
2024/04/06 06:26:35;;;;;;;5.13;2.28;;;;;;;15.66;68.11;100285.34;10296882;28;20108;-63
2024/04/06 06:31:35;;;;;;;3.97;0.90;;;;;;;15.91;67.83;100290.09;10297954;28;20049;-65
2024/04/06 06:36:36;;;;;;;5.72;2.55;;;;;;;16.13;67.04;100296.91;10306025;28;20129;-62
2024/04/06 06:41:37;;;;;;;4.88;1.40;;;;;;;16.40;66.85;100294.91;10300097;28;20049;-65
2024/04/06 06:46:37;;;;;;;4.97;1.45;;;;;;;16.66;65.81;100287.69;10295531;28;20053;-65
2024/04/06 06:51:39;;;;;;;4.20;1.00;;;;;;;16.90;64.58;100288.81;10299491;28;20050;-64
2024/04/06 06:56:39;;;;;;;2.65;0.77;;;;;;;17.11;63.84;100289.53;10298023;28;20085;-58
2024/04/06 07:01:40;;;;;;;4.13;0.45;;;;;;;17.34;62.20;100286.22;10302594;28;20046;-58
2024/04/06 07:06:40;;;;;;;1.75;0.50;;;;;;;17.59;60.80;100292.44;10295066;28;20047;-63
2024/04/06 07:11:42;;;;;;;1.73;0.40;;;;;;;17.80;59.55;100290.38;10295998;28;20076;-64
2024/04/06 07:16:42;;;;;;;0.63;0.40;;;;;;;17.98;58.56;100293.13;10292120;28;20093;-65
2024/04/06 07:21:43;;;;;;;1.75;0.50;;;;;;;18.14;57.62;100304.47;10292851;28;20391;-64
2024/04/06 07:26:44;;;;;;;2.22;1.00;;;;;;;18.42;56.66;100302.03;10280988;28;20047;-65
2024/04/06 07:31:44;;;;;;;1.75;0.40;;;;;;;18.64;55.96;100306.97;10293183;28;20055;-64
2024/04/06 07:36:45;;;;;;;4.53;0.85;;;;;;;18.80;55.04;100300.09;10297112;28;20058;-65
2024/04/06 07:41:45;;;;;;;3.83;0.80;;;;;;;18.82;54.87;100298.78;10292734;28;20057;-63
2024/04/06 07:46:46;;;;;;;4.15;0.50;;;;;;;18.83;54.37;100302.34;10295310;28;20413;-66
2024/04/06 07:51:46;;;;;;;2.72;1.17;;;;;;;18.83;54.09;100307.78;10295926;28;20050;-61
2024/04/06 07:56:47;;;;;;;1.80;0.30;;;;;;;18.82;53.80;100301.53;10299991;28;20043;-65
2024/04/06 08:01:47;;;;;;;2.58;0.38;;;;;;;18.94;53.17;100293.38;10294791;28;20494;-65
2024/04/06 08:06:50;;;;;;;0.80;0.38;;;;;;;19.10;52.17;100283.72;10296257;28;20665;-59
2024/04/06 08:11:50;;;;;;;3.22;0.73;;;;;;;19.20;51.87;100291.31;10294791;28;20047;-59
2024/04/06 08:16:51;;;;;;;2.22;0.55;;;;;;;19.38;51.19;100293.09;10284799;28;20489;-59
2024/04/06 08:21:51;;;;;;;1.15;0.30;;;;;;;19.58;50.46;100281.84;10297283;28;20046;-59
2024/04/06 08:26:52;;;;;;;1.23;0.30;;;;;;;19.68;50.35;100276.63;10295329;28;20047;-58
2024/04/06 08:31:52;;;;;;;2.90;0.38;;;;;;;19.80;49.39;100277.47;10299500;28;20051;-57
2024/04/06 08:36:53;;;;;;;2.55;0.30;;;;;;;19.81;49.46;100270.97;10298189;28;20049;-59
2024/04/06 08:41:56;;;;;;;1.55;0.30;;;;;;;19.79;48.94;100270.38;10306065;28;20046;-58
2024/04/06 08:46:57;;;;;;;2.38;0.30;;;;;;;19.92;48.72;100261.09;10302032;28;20050;-61
2024/04/06 08:51:59;;;;;;;2.42;0.30;;;;;;;19.90;48.14;100248.75;10301026;28;20664;-60
2024/04/06 08:57:00;;;;;;;4.20;0.32;;;;;;;20.07;47.39;100257.03;10299895;28;20501;-61
2024/04/06 09:02:01;;;;;;;5.57;0.40;;;;;;;20.27;47.32;100245.72;10299738;28;20046;-61
2024/04/06 09:07:01;;;;;;;7.53;0.30;;;;;;;20.33;47.06;100253.75;10302477;28;20058;-60
2024/04/06 09:12:03;;;;;;;1.05;0.40;;;;;;;20.59;46.69;100237.88;10298919;28;20116;-60
2024/04/06 09:17:04;;;;;;;1.75;0.30;;;;;;;20.70;45.76;100237.00;10299531;28;20145;-60
2024/04/06 09:22:04;;;;;;;3.90;0.40;;;;;;;21.02;45.81;100224.69;10301155;28;20605;-60
2024/04/06 09:27:08;;;;;;;1.15;0.55;;;;;;;21.23;45.25;100229.41;10306593;28;20047;-60
2024/04/06 09:32:12;;;;;;;2.60;0.32;;;;;;;21.47;45.07;100230.06;10301196;28;20038;-60
2024/04/06 09:37:14;;;;;;;1.90;0.90;;;;;;;21.80;44.75;100231.09;10297797;28;20042;-60
2024/04/06 09:42:16;;;;;;;1.60;0.32;;;;;;;21.89;43.62;100206.81;10283761;28;20435;-59
2024/04/06 09:47:20;;;;;;;0.90;0.30;;;;;;;22.21;42.77;100219.78;10296808;28;20425;-60
2024/04/06 09:52:21;;;;;;;1.00;0.20;;;;;;;22.46;41.55;100211.06;10312337;28;20053;-60
2024/04/06 09:57:22;;;;;;;1.23;0.30;;;;;;;22.68;40.87;100203.59;10296613;28;20049;-60
2024/04/06 10:02:23;;;;;;;0.70;0.40;;;;;;;22.94;39.76;100207.38;10302682;28;20093;-60
2024/04/06 10:07:31;;;;;;;3.63;0.30;;;;;;;23.16;39.47;100201.00;10296666;28;20294;-59
2024/04/06 10:12:44;;;;;;;2.53;0.20;;;;;;;23.74;38.37;100206.56;10301061;28;20045;-60
2024/04/06 10:17:47;;;;;;;4.25;0.50;;;;;;;24.20;38.03;100203.22;10284566;28;20051;-60
2024/04/06 10:22:57;;;;;;;0.93;0.20;;;;;;;29.26;30.71;100194.31;10296472;28;20058;-60
2024/04/06 10:28:03;;;;;;;0.30;0.20;;;;;;;32.41;26.05;100187.97;10298529;28;20035;-62
2024/04/06 10:33:04;;;;;;;1.40;0.30;;;;;;;34.13;24.51;100188.94;10306296;28;20104;-62
2024/04/06 10:38:06;;;;;;;1.38;0.20;;;;;;;34.49;23.37;100184.75;10298320;28;20093;-62
2024/04/06 10:43:08;;;;;;;3.10;0.20;;;;;;;33.50;24.39;100179.59;10298645;28;20059;-62
2024/04/06 10:48:09;;;;;;;1.20;0.20;;;;;;;30.88;27.54;100193.06;10295758;28;20047;-62
2024/04/06 10:53:09;;;;;;;2.88;0.22;;;;;;;29.98;27.85;100185.44;10293224;28;20319;-62
2024/04/06 10:58:10;;;;;;;0.70;0.50;;;;;;;29.01;28.83;100182.56;10280879;28;20050;-62
2024/04/06 11:03:10;;;;;;;2.95;0.45;;;;;;;28.90;28.65;100167.25;10294135;28;20556;-61
2024/04/06 11:08:11;;;;;;;0.60;0.22;;;;;;;28.54;29.22;100165.06;10295731;28;20425;-62
2024/04/06 11:13:13;;;;;;;0.88;0.20;;;;;;;28.37;29.16;100148.97;10299706;28;20047;-58
2024/04/06 11:18:14;;;;;;;0.40;0.20;;;;;;;28.61;29.19;100139.78;10297499;28;20098;-58
2024/04/06 11:23:20;;;;;;;2.83;0.30;;;;;;;28.42;29.17;100131.50;10295935;28;20053;-59
2024/04/06 11:28:22;;;;;;;1.05;0.30;;;;;;;28.89;28.85;100115.81;10297085;28;20054;-58
2024/04/06 11:33:22;;;;;;;3.50;0.40;;;;;;;34.33;22.67;100111.97;10299983;28;20043;-58
2024/04/06 11:38:23;;;;;;;0.80;0.20;;;;;;;37.55;19.99;100125.03;10298496;28;20047;-62
2024/04/06 11:43:23;;;;;;;0.75;0.20;;;;;;;39.77;18.31;100133.34;10294035;28;20070;-63
2024/04/06 11:48:24;;;;;;;1.13;0.28;;;;;;;39.49;17.62;100112.03;10296372;28;20046;-63
2024/04/06 11:53:25;;;;;;;2.00;0.30;;;;;;;39.10;18.00;100106.56;10281789;28;20605;-63
2024/04/06 11:58:26;;;;;;;0.63;0.50;;;;;;;40.13;17.44;100088.81;10294587;28;20045;-63
2024/04/06 12:03:27;;;;;;;1.17;0.25;;;;;;;42.31;15.62;100094.63;10300125;28;20050;-63
2024/04/06 12:08:28;;;;;;;0.98;0.20;;;;;;;42.93;14.79;100094.38;10299387;28;20441;-63
2024/04/06 12:13:28;;;;;;;3.55;0.30;;;;;;;42.41;14.83;100085.38;10298115;28;20621;-60
2024/04/06 12:18:28;;;;;;;3.20;0.22;;;;;;;40.95;16.12;100081.25;10303572;28;20061;-63
2024/04/06 12:23:29;;;;;;;2.35;0.30;;;;;;;38.25;18.00;100076.50;10303473;28;20528;-63
2024/04/06 12:28:30;;;;;;;2.70;0.30;;;;;;;36.09;19.41;100064.69;10302370;28;20138;-63
2024/04/06 12:33:30;;;;;;;1.77;0.35;;;;;;;37.97;17.38;100053.41;10302298;28;20051;-63
2024/04/06 12:38:31;;;;;;;0.82;0.20;;;;;;;41.08;15.25;100064.03;10302849;28;20085;-63
2024/04/06 12:43:32;;;;;;;0.98;0.22;;;;;;;43.53;13.88;100067.25;10301045;28;20051;-63
2024/04/06 12:48:32;;;;;;;0.50;0.20;;;;;;;45.68;12.63;100056.53;10297997;28;20050;-63
2024/04/06 12:53:33;;;;;;;1.77;0.25;;;;;;;46.91;11.94;100049.94;10302787;28;20050;-63
2024/04/06 12:58:34;;;;;;;0.40;0.20;;;;;;;47.96;11.83;100051.63;10303646;28;20249;-63
2024/04/06 13:03:34;;;;;;;0.77;0.20;;;;;;;48.39;11.57;100042.91;10297999;28;20042;-63
2024/04/06 13:08:35;;;;;;;2.33;0.20;;;;;;;47.64;11.70;100033.13;10298114;28;20046;-63
2024/04/06 13:13:36;;;;;;;0.82;0.15;;;;;;;47.57;11.40;100031.22;10302978;28;20096;-63
2024/04/06 13:18:36;;;;;;;0.38;0.30;;;;;;;46.42;11.02;100027.53;10299837;28;20054;-63
2024/04/06 13:23:37;;;;;;;0.20;0.10;;;;;;;44.90;11.90;100018.38;10300124;28;20047;-63
2024/04/06 13:28:38;;;;;;;1.10;0.20;;;;;;;44.93;11.71;100003.34;10298343;28;20389;-63
2024/04/06 13:33:38;;;;;;;1.48;0.20;;;;;;;44.06;11.86;100003.13;10295909;28;20098;-63
2024/04/06 13:38:39;;;;;;;2.20;0.30;;;;;;;44.33;11.54;99992.03;10299845;28;20092;-63
2024/04/06 13:43:39;;;;;;;0.85;0.30;;;;;;;44.34;11.83;99984.34;10306003;28;20046;-63
2024/04/06 13:48:40;;;;;;;0.30;0.20;;;;;;;44.29;11.75;99970.59;10298794;28;20046;-63
2024/04/06 13:53:40;;;;;;;0.30;0.20;;;;;;;43.65;11.65;99971.75;10298191;28;20034;-63
2024/04/06 13:58:44;;;;;;;0.15;0.15;;;;;;;43.88;11.83;99954.25;10294905;28;20050;-65
2024/04/06 14:03:44;;;;;;;0.30;0.20;;;;;;;43.46;11.82;99959.69;10301528;28;20065;-67
2024/04/06 14:08:45;;;;;;;1.55;0.20;;;;;;;42.68;12.13;99947.31;10301196;28;20050;-66
2024/04/06 14:13:46;;;;;;;1.98;0.28;;;;;;;42.19;12.38;99944.03;10301633;28;20457;-65
2024/04/06 14:18:46;;;;;;;1.02;0.20;;;;;;;41.45;12.97;99936.91;10298808;28;20061;-66
2024/04/06 14:23:47;;;;;;;1.02;0.20;;;;;;;41.57;13.52;99927.28;10301034;28;20047;-64
2024/04/06 14:28:47;;;;;;;0.85;0.20;;;;;;;41.63;12.99;99925.72;10297346;28;20043;-64
2024/04/06 14:33:48;;;;;;;1.02;0.40;;;;;;;42.22;12.90;99916.19;10304606;28;20093;-65
2024/04/06 14:38:48;;;;;;;0.50;0.40;;;;;;;41.75;13.06;99910.44;10296230;28;20038;-62
2024/04/06 14:43:49;;;;;;;0.88;0.20;;;;;;;39.83;13.81;99906.63;10295466;28;20050;-62
2024/04/06 14:48:50;;;;;;;1.15;0.30;;;;;;;38.81;13.98;99912.13;10295546;28;20046;-62
2024/04/06 14:53:50;;;;;;;0.50;0.20;;;;;;;37.97;14.78;99918.69;10298103;28;20053;-62
2024/04/06 14:58:51;;;;;;;1.17;0.30;;;;;;;37.26;15.22;99911.22;10297206;28;20042;-62
2024/04/06 15:03:52;;;;;;;0.40;0.20;;;;;;;36.30;15.55;99906.94;10294841;28;20042;-62
2024/04/06 15:08:52;;;;;;;1.02;0.30;;;;;;;35.69;15.91;99906.09;10297561;28;20050;-61
2024/04/06 15:13:53;;;;;;;0.20;0.10;;;;;;;34.49;16.37;99911.16;10294561;28;20043;-60
2024/04/06 15:18:53;;;;;;;1.13;0.30;;;;;;;33.92;16.33;99921.13;10296180;28;20046;-64
2024/04/06 15:23:54;;;;;;;0.50;0.20;;;;;;;33.54;16.89;99918.53;10306757;28;20502;-64
2024/04/06 15:28:54;;;;;;;1.58;0.20;;;;;;;33.36;17.48;99915.88;10306765;28;20074;-64
2024/04/06 15:33:55;;;;;;;1.80;0.20;;;;;;;33.22;17.20;99901.41;10302437;28;20103;-65
2024/04/06 15:38:55;;;;;;;0.50;0.20;;;;;;;33.18;17.51;99898.50;10311789;28;20046;-65
2024/04/06 15:43:56;;;;;;;0.77;0.30;;;;;;;32.76;17.54;99887.28;10310741;28;20076;-62
2024/04/06 15:48:57;;;;;;;0.52;0.20;;;;;;;32.31;18.15;99885.03;10306916;28;20081;-68
2024/04/06 15:53:57;;;;;;;2.35;0.30;;;;;;;31.86;18.41;99877.13;10301908;28;20042;-64
2024/04/06 15:58:58;;;;;;;1.00;0.30;;;;;;;31.55;18.10;99894.00;10284890;28;20038;-65
2024/04/06 16:03:58;;;;;;;2.03;0.40;;;;;;;31.23;19.03;99894.16;10302535;28;20042;-63
2024/04/06 16:08:59;;;;;;;0.93;0.30;;;;;;;30.92;19.20;99907.34;10298147;28;20057;-65
2024/04/06 16:14:00;;;;;;;1.67;0.20;;;;;;;30.74;19.20;99901.72;10304873;28;20058;-65
2024/04/06 16:19:00;;;;;;;1.73;0.20;;;;;;;30.72;19.16;99901.22;10300474;28;20099;-62
2024/04/06 16:24:01;;;;;;;1.95;0.30;;;;;;;30.54;19.81;99897.56;10295336;28;20486;-61
2024/04/06 16:29:01;;;;;;;2.03;0.30;;;;;;;30.55;19.87;99903.94;10285345;28;20042;-61
2024/04/06 16:34:02;;;;;;;1.65;0.20;;;;;;;30.56;20.17;99903.63;10296699;28;20070;-61
2024/04/06 16:39:02;;;;;;;1.67;0.70;;;;;;;30.51;20.73;99903.78;10294250;28;20569;-60
2024/04/06 16:44:03;;;;;;;2.03;0.40;;;;;;;30.60;20.86;99903.81;10293627;28;20113;-61
2024/04/06 16:49:05;;;;;;;1.50;0.70;;;;;;;30.53;21.53;99901.50;10299900;28;20062;-61
2024/04/06 16:54:05;;;;;;;3.00;0.70;;;;;;;30.35;22.23;99905.34;10293306;28;20513;-61
2024/04/06 16:59:06;;;;;;;2.03;1.25;;;;;;;30.11;23.05;99900.94;10295372;28;20050;-61
2024/04/06 17:04:07;;;;;;;3.33;1.00;;;;;;;29.78;23.32;99897.66;10304795;28;20038;-61
2024/04/06 17:09:08;;;;;;;3.13;0.93;;;;;;;29.39;24.20;99904.69;10303191;28;20038;-61
2024/04/06 17:14:08;;;;;;;4.97;0.93;;;;;;;28.98;24.63;99906.38;10298869;28;20129;-61
2024/04/06 17:19:09;;;;;;;5.13;1.00;;;;;;;28.58;25.40;99906.13;10301070;28;20406;-61
2024/04/06 17:24:09;;;;;;;4.28;0.90;;;;;;;28.20;26.73;99903.50;10303741;28;20047;-61
2024/04/06 17:29:10;;;;;;;4.55;0.85;;;;;;;27.81;27.29;99892.84;10304931;28;20648;-61
2024/04/06 17:34:11;;;;;;;3.83;1.13;;;;;;;27.41;28.84;99895.97;10299069;28;20069;-61
2024/04/06 17:39:13;;;;;;;6.28;2.30;;;;;;;27.00;29.66;99902.03;10306455;28;20038;-60
2024/04/06 17:44:13;;;;;;;7.43;1.80;;;;;;;26.68;30.05;99911.84;10297117;28;20051;-61
2024/04/06 17:49:15;;;;;;;5.22;1.98;;;;;;;26.33;32.14;99910.28;10299190;28;20073;-61
2024/04/06 17:54:16;;;;;;;7.55;2.25;;;;;;;25.96;32.94;99913.66;10299869;28;20054;-60
2024/04/06 17:59:17;;;;;;;13.10;3.22;;;;;;;25.55;33.36;99914.78;10295902;28;20038;-60
2024/04/06 18:04:17;;;;;;;8.63;3.10;;;;;;;25.23;34.63;99915.28;10297020;28;20121;-61
2024/04/06 18:09:18;;;;;;;7.82;3.50;;;;;;;24.85;34.73;99931.41;10297384;28;20050;-58
2024/04/06 18:14:18;;;;;;;9.07;3.75;;;;;;;24.54;35.82;99939.75;10305085;28;20050;-58
2024/04/06 18:19:19;;;;;;;12.50;4.40;;;;;;;24.22;37.13;99946.38;10298130;28;20108;-58
2024/04/06 18:24:19;;;;;;;13.40;5.60;;;;;;;23.89;37.88;99945.00;10283849;28;20487;-58
2024/04/06 18:29:20;;;;;;;7.63;3.47;;;;;;;23.56;39.32;99955.41;10295133;28;20456;-58
2024/04/06 18:34:22;;;;;;;6.35;2.30;;;;;;;23.21;40.67;99964.38;10297354;28;20402;-59
2024/04/06 18:39:22;;;;;;;5.65;1.63;;;;;;;22.91;41.30;99963.13;10301179;28;20661;-59
2024/04/06 18:44:23;;;;;;;4.35;1.48;;;;;;;22.69;41.78;99968.75;10299082;28;20141;-59
2024/04/06 18:49:23;;;;;;;8.07;2.47;;;;;;;22.38;41.89;99971.31;10294355;28;20069;-59
2024/04/06 18:54:24;;;;;;;9.20;2.72;;;;;;;22.15;42.03;99980.69;10300432;28;20090;-58
2024/04/06 18:59:25;;;;;;;9.95;2.38;;;;;;;21.95;43.30;99984.09;10289982;28;20050;-58
2024/04/06 19:04:26;;;;;;;5.30;2.40;;;;;;;21.76;44.22;99983.66;10296673;28;20088;-58
2024/04/06 19:09:26;;;;;;;7.97;3.08;;;;;;;21.58;44.88;99982.09;10296238;28;20057;-60
2024/04/06 19:14:27;;;;;;;9.35;3.38;;;;;;;21.37;45.47;99981.88;10289660;28;20046;-60
2024/04/06 19:19:27;;;;;;;8.00;3.33;;;;;;;21.18;45.90;99980.53;10284283;28;20039;-59
2024/04/06 19:24:28;;;;;;;9.77;4.05;;;;;;;20.99;46.40;99980.88;10298682;28;20049;-59
2024/04/06 19:29:28;;;;;;;14.50;5.82;;;;;;;20.79;47.13;99980.59;10292491;28;20050;-59
2024/04/06 19:34:29;;;;;;;9.65;4.72;;;;;;;20.56;47.34;99970.72;10299852;28;20049;-58
2024/04/06 19:39:29;;;;;;;10.88;3.92;;;;;;;20.31;48.22;99969.25;10293896;28;20053;-58
2024/04/06 19:44:30;;;;;;;11.75;5.07;;;;;;;19.91;48.97;99972.16;10293722;28;20105;-58
2024/04/06 19:49:30;;;;;;;10.30;4.38;;;;;;;19.87;48.53;99969.09;10297797;28;20043;-59
2024/04/06 19:54:31;;;;;;;8.75;3.92;;;;;;;19.86;48.75;99967.41;10295514;28;20440;-58
2024/04/06 19:59:32;;;;;;;9.05;3.75;;;;;;;19.75;49.48;99965.63;10295808;28;20732;-58
2024/04/06 20:04:32;;;;;;;7.15;3.83;;;;;;;19.65;49.33;99963.50;10296875;28;20042;-59
2024/04/06 20:09:33;;;;;;;6.88;3.88;;;;;;;19.53;49.37;99960.84;10281184;28;20042;-58
2024/04/06 20:14:33;;;;;;;11.25;4.95;;;;;;;19.40;50.04;99958.41;10298761;28;20511;-58
2024/04/06 20:19:34;;;;;;;8.00;3.53;;;;;;;19.31;50.55;99959.84;10298659;28;20051;-58
2024/04/06 20:29:54;;;;;;;8.75;3.70;;;;;;;19.06;51.54;99963.75;10300076;28;20112;-58
2024/04/06 20:34:55;;;;;;;7.72;3.78;;;;;;;18.88;51.82;99961.16;10297367;28;20034;-58
2024/04/06 20:39:55;;;;;;;11.00;4.43;;;;;;;18.71;52.20;99961.88;10300965;28;20039;-58
2024/04/06 20:44:56;;;;;;;10.15;3.95;;;;;;;18.68;52.21;99956.94;10305624;28;20046;-57
2024/04/06 20:49:56;;;;;;;13.55;5.07;;;;;;;18.61;52.14;99961.66;10302133;28;20057;-58
2024/04/06 20:54:57;;;;;;;13.52;6.00;;;;;;;18.58;52.02;99956.69;10302041;28;20047;-58
2024/04/06 20:59:57;;;;;;;10.07;5.40;;;;;;;18.45;52.43;99951.50;10301323;28;20046;-58
2024/04/06 21:04:59;;;;;;;8.63;4.63;;;;;;;18.31;52.88;99957.19;10292551;28;20543;-56
2024/04/06 21:10:00;;;;;;;9.95;4.10;;;;;;;18.25;52.58;99958.16;10301810;28;20438;-58
2024/04/06 21:15:06;;;;;;;7.78;4.50;;;;;;;18.25;52.65;99947.25;10301503;28;20046;-57
2024/04/06 21:20:07;;;;;;;9.33;4.43;;;;;;;18.19;52.73;99954.47;10302157;28;20046;-57
2024/04/06 21:25:07;;;;;;;8.82;4.13;;;;;;;18.13;52.68;99957.31;10305885;28;20045;-58
2024/04/06 21:30:08;;;;;;;9.18;3.63;;;;;;;18.13;52.74;99955.41;10303718;28;20055;-58
2024/04/06 21:35:08;;;;;;;11.02;3.55;;;;;;;18.00;53.32;99951.00;10298984;28;20042;-56
2024/04/06 21:40:09;;;;;;;5.80;3.15;;;;;;;17.85;53.52;99947.91;10301749;28;20050;-56
2024/04/06 21:45:10;;;;;;;5.20;3.20;;;;;;;17.77;53.48;99959.09;10299007;28;20034;-57
2024/04/06 21:50:10;;;;;;;5.90;3.08;;;;;;;17.75;53.75;99951.19;10299487;28;20050;-56
2024/04/06 21:55:11;;;;;;;7.40;3.33;;;;;;;17.72;53.82;99959.81;10302106;28;20042;-57
2024/04/06 22:00:19;;;;;;;10.68;3.30;;;;;;;17.67;54.02;99950.69;10300483;28;20375;-58
2024/04/06 22:05:21;;;;;;;9.98;3.70;;;;;;;17.59;54.40;99949.94;10297292;28;20047;-56
2024/04/06 22:10:22;;;;;;;6.70;2.63;;;;;;;17.47;54.70;99943.66;10299549;28;20050;-57
2024/04/06 22:15:23;;;;;;;6.72;3.00;;;;;;;17.42;54.68;99951.69;10295214;28;20050;-58
2024/04/06 22:20:24;;;;;;;5.93;2.92;;;;;;;17.35;54.77;99951.75;10295646;28;20053;-56
2024/04/06 22:25:25;;;;;;;3.72;1.98;;;;;;;17.28;54.93;99947.47;10299035;28;20092;-58
2024/04/06 22:30:26;;;;;;;5.88;2.05;;;;;;;17.11;55.41;99950.84;10304709;28;20096;-56
2024/04/06 22:35:28;;;;;;;8.68;2.50;;;;;;;17.03;55.66;99945.72;10295360;28;20043;-57
2024/04/06 22:40:28;;;;;;;4.75;2.65;;;;;;;17.02;55.85;99944.91;10301465;28;20163;-58
2024/04/06 22:45:29;;;;;;;6.88;2.50;;;;;;;16.96;56.09;99937.69;10301074;28;20626;-57
2024/04/06 22:50:29;;;;;;;5.97;2.67;;;;;;;16.93;56.19;99942.72;10298686;28;20066;-57
2024/04/06 22:55:30;;;;;;;6.00;2.95;;;;;;;16.82;56.30;99937.00;10298248;28;20039;-58
2024/04/06 23:00:30;;;;;;;5.38;2.83;;;;;;;16.79;56.52;99932.00;10298841;28;20433;-57
2024/04/06 23:05:31;;;;;;;1.90;1.38;;;;;;;16.66;56.87;99924.00;10301184;28;20126;-57
2024/04/06 23:10:32;;;;;;;4.80;2.33;;;;;;;16.64;56.82;99926.94;10297634;28;20490;-62